createdAt,value
2023-01-22T00:01:24.864Z,100945.41
2023-01-22T00:03:54.810Z,100937.81
2023-01-22T00:06:23.828Z,100940.91
2023-01-22T00:08:53.708Z,100940.36
2023-01-22T00:11:22.395Z,100948.63
2023-01-22T00:13:50.875Z,100955.54
2023-01-22T00:16:20.468Z,100960.66
2023-01-22T00:18:49.119Z,100954.08
2023-01-22T00:21:18.119Z,100950.27
2023-01-22T00:23:46.748Z,100953.70
2023-01-22T00:26:17.337Z,100956.92
2023-01-22T00:28:46.480Z,100969.36
2023-01-22T00:31:16.491Z,100975.23
2023-01-22T00:33:47.006Z,100973.33
2023-01-22T00:36:21.772Z,100967.70
2023-01-22T00:38:51.311Z,100976.20
2023-01-22T00:41:20.930Z,100976.73
2023-01-22T00:43:52.539Z,100981.59
2023-01-22T00:46:21.426Z,100984.44
2023-01-22T00:48:50.266Z,100984.27
2023-01-22T00:51:19.063Z,100982.42
2023-01-22T00:53:47.855Z,100979.70
2023-01-22T00:56:16.681Z,100982.15
2023-01-22T00:58:45.226Z,100990.23
2023-01-22T01:01:15.737Z,100992.83
2023-01-22T01:03:44.427Z,100992.30
2023-01-22T01:06:20.276Z,101004.54
2023-01-22T01:08:50.174Z,100999.89
2023-01-22T01:11:23.208Z,100997.17
2023-01-22T01:13:53.386Z,100997.84
2023-01-22T01:16:26.973Z,101002.84
2023-01-22T01:19:05.435Z,101006.52
2023-01-22T01:21:34.783Z,101006.35
2023-01-22T01:24:03.456Z,101014.65
2023-01-22T01:26:33.487Z,101018.45
2023-01-22T01:29:05.222Z,101019.84
2023-01-22T01:31:34.153Z,101022.58
2023-01-22T01:34:03.814Z,101022.59
2023-01-22T01:36:47.654Z,101024.30
2023-01-22T01:39:17.594Z,101028.95
2023-01-22T01:41:46.106Z,101026.54
2023-01-22T01:44:22.402Z,101027.23
2023-01-22T01:47:08.477Z,101024.83
2023-01-22T01:49:47.203Z,101025.16
2023-01-22T01:52:16.603Z,101023.64
2023-01-22T01:54:52.034Z,101027.11
2023-01-22T01:57:26.799Z,101028.30
2023-01-22T01:59:57.569Z,101033.16
2023-01-22T02:02:26.261Z,101036.78
2023-01-22T02:04:56.166Z,101037.79
2023-01-22T02:07:24.878Z,101038.83
2023-01-22T02:09:53.376Z,101040.37
2023-01-22T02:12:22.521Z,101045.25
2023-01-22T02:14:50.978Z,101040.98
2023-01-22T02:17:22.514Z,101042.37
2023-01-22T02:19:50.952Z,101044.27
2023-01-22T02:22:30.557Z,101047.20
2023-01-22T02:24:59.605Z,101050.84
2023-01-22T02:27:28.318Z,101049.28
2023-01-22T02:29:56.850Z,101050.66
2023-01-22T02:32:25.912Z,101051.71
2023-01-22T02:34:55.292Z,101056.05
2023-01-22T02:37:23.934Z,101056.26
2023-01-22T02:39:52.425Z,101056.48
2023-01-22T02:42:20.905Z,101060.60
2023-01-22T02:44:50.287Z,101055.29
2023-01-22T02:47:19.339Z,101053.08
2023-01-22T02:49:47.908Z,101059.81
2023-01-22T02:52:16.552Z,101057.25
2023-01-22T02:54:45.006Z,101058.13
2023-01-22T02:57:13.462Z,101059.66
2023-01-22T02:59:41.893Z,101061.42
2023-01-22T03:02:10.470Z,101058.16
2023-01-22T03:04:38.972Z,101060.43
2023-01-22T03:07:07.348Z,101061.63
2023-01-22T03:09:35.741Z,101061.13
2023-01-22T03:12:04.551Z,101062.69
2023-01-22T03:14:51.682Z,101064.40
2023-01-22T03:17:39.054Z,101065.46
2023-01-22T03:20:27.256Z,101069.45
2023-01-22T03:22:55.677Z,101074.64
2023-01-22T03:25:24.159Z,101071.73
2023-01-22T03:28:18.686Z,101070.17
2023-01-22T03:30:47.160Z,101073.45
2023-01-22T03:33:15.919Z,101072.40
2023-01-22T03:35:44.304Z,101073.77
2023-01-22T03:38:12.790Z,101076.52
2023-01-22T03:40:41.313Z,101073.92
2023-01-22T03:43:09.761Z,101080.44
2023-01-22T03:45:38.332Z,101082.16
2023-01-22T03:48:06.991Z,101087.18
2023-01-22T03:50:36.526Z,101084.09
2023-01-22T03:53:04.973Z,101082.77
2023-01-22T03:55:33.576Z,101083.96
2023-01-22T03:58:02.032Z,101079.33
2023-01-22T04:00:30.508Z,101084.51
2023-01-22T04:02:58.912Z,101090.19
2023-01-22T04:05:27.292Z,101096.91
2023-01-22T04:07:55.706Z,101100.19
2023-01-22T04:10:24.065Z,101101.42
2023-01-22T04:12:52.628Z,101102.13
2023-01-22T04:15:21.219Z,101107.48
2023-01-22T04:17:49.613Z,101106.42
2023-01-22T04:20:18.344Z,101102.80
2023-01-22T04:22:47.639Z,101098.84
2023-01-22T04:25:16.126Z,101096.79
2023-01-22T04:27:45.833Z,101098.21
2023-01-22T04:30:14.662Z,101092.52
2023-01-22T04:32:43.232Z,101092.69
2023-01-22T04:35:11.637Z,101089.93
2023-01-22T04:37:40.043Z,101084.95
2023-01-22T04:40:10.146Z,101090.28
2023-01-22T04:42:38.535Z,101093.40
2023-01-22T04:45:08.056Z,101087.56
2023-01-22T04:47:41.622Z,101089.98
2023-01-22T04:50:18.372Z,101093.95
2023-01-22T04:52:47.357Z,101099.80
2023-01-22T04:55:15.868Z,101098.25
2023-01-22T04:57:44.332Z,101099.64
2023-01-22T05:00:13.863Z,101105.18
2023-01-22T05:02:42.252Z,101110.86
2023-01-22T05:05:10.926Z,101113.41
2023-01-22T05:07:39.452Z,101120.65
2023-01-22T05:10:08.773Z,101125.31
2023-01-22T05:12:37.141Z,101126.17
2023-01-22T05:15:14.968Z,101130.30
2023-01-22T05:17:47.500Z,101137.37
2023-01-22T05:20:16.850Z,101139.97
2023-01-22T05:22:45.669Z,101141.05
2023-01-22T05:25:14.147Z,101146.42
2023-01-22T05:27:43.835Z,101150.25
2023-01-22T05:30:13.410Z,101152.66
2023-01-22T05:32:41.799Z,101160.92
2023-01-22T05:35:11.515Z,101157.65
2023-01-22T05:37:39.977Z,101159.20
2023-01-22T05:40:09.175Z,101164.72
2023-01-22T05:42:37.630Z,101159.52
2023-01-22T05:45:07.009Z,101160.02
2023-01-22T05:47:35.444Z,101162.78
2023-01-22T05:50:04.843Z,101163.48
2023-01-22T05:52:33.229Z,101162.80
2023-01-22T05:55:01.994Z,101165.55
2023-01-22T05:57:35.675Z,101168.14
2023-01-22T06:00:05.984Z,101166.23
2023-01-22T06:02:35.907Z,101167.48
2023-01-22T06:05:05.163Z,101165.58
2023-01-22T06:07:33.604Z,101167.84
2023-01-22T06:10:02.133Z,101169.59
2023-01-22T06:12:30.778Z,101168.40
2023-01-22T06:14:59.392Z,101162.03
2023-01-22T06:17:27.723Z,101163.23
2023-01-22T06:19:56.136Z,101165.85
2023-01-22T06:22:24.629Z,101167.45
2023-01-22T06:24:53.094Z,101171.91
2023-01-22T06:27:21.510Z,101175.37
2023-01-22T06:29:49.999Z,101181.70
2023-01-22T06:32:18.441Z,101181.70
2023-01-22T06:34:46.812Z,101182.04
2023-01-22T06:37:15.228Z,101182.17
2023-01-22T06:39:43.578Z,101185.40
2023-01-22T06:42:11.953Z,101186.25
2023-01-22T06:44:40.246Z,101184.16
2023-01-22T06:47:08.615Z,101190.81
2023-01-22T06:49:37.031Z,101192.83
2023-01-22T06:52:08.488Z,101200.16
2023-01-22T06:54:36.787Z,101201.30
2023-01-22T06:57:05.577Z,101203.65
2023-01-22T06:59:35.674Z,101202.52
2023-01-22T07:02:05.396Z,101205.55
2023-01-22T07:04:33.651Z,101213.58
2023-01-22T07:07:01.934Z,101219.15
2023-01-22T07:09:30.255Z,101219.89
2023-01-22T07:12:01.041Z,101225.48
2023-01-22T07:14:36.917Z,101231.45
2023-01-22T07:17:06.038Z,101238.69
2023-01-22T07:19:34.365Z,101239.14
2023-01-22T07:22:02.734Z,101242.71
2023-01-22T07:24:31.014Z,101245.57
2023-01-22T07:27:01.986Z,101242.43
2023-01-22T07:29:30.267Z,101241.70
2023-01-22T07:31:58.689Z,101247.31
2023-01-22T07:34:27.042Z,101250.84
2023-01-22T07:36:55.598Z,101255.94
2023-01-22T07:39:23.977Z,101265.02
2023-01-22T07:41:52.315Z,101264.43
2023-01-22T07:44:20.865Z,101269.55
2023-01-22T07:46:49.263Z,101274.54
2023-01-22T07:49:17.627Z,101275.35
2023-01-22T07:51:46.071Z,101278.03
2023-01-22T07:54:16.315Z,101278.65
2023-01-22T07:56:46.367Z,101271.90
2023-01-22T07:59:14.899Z,101267.42
2023-01-22T08:01:43.396Z,101259.83
2023-01-22T08:04:11.822Z,101266.09
2023-01-22T08:06:40.228Z,101266.58
2023-01-22T08:09:08.669Z,101266.38
2023-01-22T08:11:37.264Z,101272.37
2023-01-22T08:14:05.668Z,101273.21
2023-01-22T08:16:35.795Z,101266.69
2023-01-22T08:19:04.286Z,101265.23
2023-01-22T08:21:32.966Z,101270.24
2023-01-22T08:24:02.080Z,101278.45
2023-01-22T08:26:30.543Z,101281.11
2023-01-22T08:28:58.968Z,101280.16
2023-01-22T08:31:28.699Z,101286.14
2023-01-22T08:34:00.457Z,101285.03
2023-01-22T08:36:28.979Z,101282.48
2023-01-22T08:38:57.505Z,101281.29
2023-01-22T08:41:25.893Z,101287.27
2023-01-22T08:43:54.343Z,101291.36
2023-01-22T08:46:22.731Z,101299.98
2023-01-22T08:48:51.134Z,101302.19
2023-01-22T08:51:20.190Z,101301.21
2023-01-22T08:53:48.734Z,101302.67
2023-01-22T08:56:17.129Z,101304.31
2023-01-22T08:58:51.833Z,101303.33
2023-01-22T09:01:20.617Z,101305.81
2023-01-22T09:03:49.388Z,101309.88
2023-01-22T09:06:18.080Z,101313.48
2023-01-22T09:08:46.419Z,101323.64
2023-01-22T09:11:14.777Z,101334.67
2023-01-22T09:13:43.082Z,101343.48
2023-01-22T09:16:11.811Z,101344.47
2023-01-22T09:18:40.195Z,101333.31
2023-01-22T09:21:08.648Z,101327.98
2023-01-22T09:23:36.994Z,101332.05
2023-01-22T09:26:05.498Z,101335.67
2023-01-22T09:28:36.005Z,101332.10
2023-01-22T09:31:07.090Z,101331.02
2023-01-22T09:33:35.440Z,101332.52
2023-01-22T09:36:21.779Z,101328.12
2023-01-22T09:38:50.186Z,101327.48
2023-01-22T09:41:34.173Z,101331.00
2023-01-22T09:44:31.518Z,101337.30
2023-01-22T09:47:47.525Z,101342.38
2023-01-22T09:50:30.679Z,101338.82
2023-01-22T09:53:04.972Z,101338.77
2023-01-22T09:55:52.853Z,101337.24
2023-01-22T09:58:24.073Z,101337.15
2023-01-22T10:01:05.705Z,101334.62
2023-01-22T10:03:49.001Z,101324.89
2023-01-22T10:06:23.185Z,101332.46
2023-01-22T10:09:07.967Z,101335.38
2023-01-22T10:11:40.077Z,101335.49
2023-01-22T10:14:16.130Z,101334.23
2023-01-22T10:16:45.703Z,101338.02
2023-01-22T10:19:44.417Z,101334.01
2023-01-22T10:22:25.146Z,101324.77
2023-01-22T10:24:55.017Z,101324.47
2023-01-22T10:27:35.482Z,101317.77
2023-01-22T10:30:22.921Z,101316.83
2023-01-22T10:33:05.165Z,101324.13
2023-01-22T10:35:45.810Z,101333.83
2023-01-22T10:38:32.679Z,101339.23
2023-01-22T10:41:04.136Z,101340.23
2023-01-22T10:43:38.630Z,101342.44
2023-01-22T10:46:17.677Z,101346.33
2023-01-22T10:48:58.145Z,101345.05
2023-01-22T10:51:36.706Z,101343.63
2023-01-22T10:54:26.827Z,101337.51
2023-01-22T10:57:13.689Z,101336.34
2023-01-22T10:59:49.371Z,101343.05
2023-01-22T11:02:24.553Z,101342.36
2023-01-22T11:04:53.393Z,101341.13
2023-01-22T11:07:32.666Z,101348.08
2023-01-22T11:10:39.327Z,101343.38
2023-01-22T11:13:20.690Z,101341.87
2023-01-22T11:16:02.961Z,101343.21
2023-01-22T11:18:38.468Z,101344.14
2023-01-22T11:21:35.076Z,101342.13
2023-01-22T11:24:32.598Z,101336.45
2023-01-22T11:27:31.863Z,101328.39
2023-01-22T11:30:22.314Z,101328.09
2023-01-22T11:33:20.375Z,101325.04
2023-01-22T11:36:09.577Z,101325.88
2023-01-22T11:39:10.750Z,101321.02
2023-01-22T11:42:05.771Z,101319.58
2023-01-22T11:44:55.887Z,101314.98
2023-01-22T11:47:54.675Z,101316.70
2023-01-22T11:50:46.967Z,101311.96
2023-01-22T11:54:12.344Z,101310.73
2023-01-22T11:57:11.719Z,101309.66
2023-01-22T12:00:40.161Z,101308.45
2023-01-22T12:03:52.867Z,101308.69
2023-01-22T12:06:57.607Z,101306.60
2023-01-22T12:10:12.802Z,101306.56
2023-01-22T12:13:21.393Z,101302.56
2023-01-22T12:16:38.731Z,101305.58
2023-01-22T12:19:31.615Z,101302.67
2023-01-22T12:22:31.993Z,101302.05
2023-01-22T12:25:12.520Z,101301.10
2023-01-22T12:28:44.322Z,101303.42
2023-01-22T12:32:02.121Z,101306.88
2023-01-22T12:35:09.068Z,101318.18
2023-01-22T12:38:10.549Z,101313.03
2023-01-22T12:41:06.167Z,101318.36
2023-01-22T12:43:46.660Z,101321.66
2023-01-22T12:46:46.333Z,101319.23
2023-01-22T12:49:18.891Z,101319.56
2023-01-22T12:51:53.377Z,101313.98
2023-01-22T12:54:27.655Z,101319.90
2023-01-22T12:57:14.408Z,101319.36
2023-01-22T12:59:57.762Z,101326.09
2023-01-22T13:02:47.142Z,101328.00
2023-01-22T13:05:22.690Z,101325.22
2023-01-22T13:08:16.235Z,101329.65
2023-01-22T13:10:58.739Z,101331.00
2023-01-22T13:13:41.807Z,101329.38
2023-01-22T13:16:34.203Z,101327.11
2023-01-22T13:19:36.288Z,101320.13
2023-01-22T13:22:07.074Z,101320.89
2023-01-22T13:24:35.498Z,101320.34
2023-01-22T13:27:04.061Z,101322.81
2023-01-22T13:29:37.818Z,101323.20
2023-01-22T13:32:29.227Z,101321.84
2023-01-22T13:35:05.942Z,101317.78
2023-01-22T13:37:35.855Z,101317.21
2023-01-22T13:40:27.089Z,101316.77
2023-01-22T13:42:58.363Z,101317.61
2023-01-22T13:45:33.103Z,101316.98
2023-01-22T13:48:04.165Z,101321.34
2023-01-22T13:50:33.131Z,101331.70
2023-01-22T13:53:02.500Z,101338.63
2023-01-22T13:55:31.208Z,101333.63
2023-01-22T13:58:05.229Z,101332.09
2023-01-22T14:00:36.538Z,101322.46
2023-01-22T14:03:20.424Z,101326.30
2023-01-22T14:05:50.305Z,101330.52
2023-01-22T14:08:18.835Z,101335.95
2023-01-22T14:10:59.960Z,101340.16
2023-01-22T14:13:39.919Z,101342.27
2023-01-22T14:16:09.278Z,101347.45
2023-01-22T14:18:38.384Z,101350.77
2023-01-22T14:21:08.012Z,101354.26
2023-01-22T14:23:36.374Z,101352.05
2023-01-22T14:26:07.429Z,101353.84
2023-01-22T14:28:36.752Z,101352.88
2023-01-22T14:31:05.220Z,101356.59
2023-01-22T14:33:35.042Z,101360.28
2023-01-22T14:36:03.707Z,101366.52
2023-01-22T14:38:32.136Z,101362.41
2023-01-22T14:41:04.960Z,101367.29
2023-01-22T14:43:35.586Z,101368.52
2023-01-22T14:46:08.249Z,101368.25
2023-01-22T14:48:36.604Z,101372.41
2023-01-22T14:51:11.018Z,101375.35
2023-01-22T14:53:40.130Z,101378.66
2023-01-22T14:56:08.509Z,101383.16
2023-01-22T14:58:36.788Z,101386.48
2023-01-22T15:01:21.061Z,101384.29
2023-01-22T15:03:49.585Z,101383.46
2023-01-22T15:06:18.774Z,101392.38
2023-01-22T15:08:47.354Z,101395.25
2023-01-22T15:11:15.756Z,101395.20
2023-01-22T15:13:44.194Z,101396.86
2023-01-22T15:16:12.695Z,101406.83
2023-01-22T15:18:41.333Z,101410.00
2023-01-22T15:21:11.339Z,101414.91
2023-01-22T15:23:40.875Z,101416.02
2023-01-22T15:26:28.884Z,101416.79
2023-01-22T15:28:58.383Z,101422.27
2023-01-22T15:31:27.753Z,101425.95
2023-01-22T15:33:58.735Z,101429.13
2023-01-22T15:36:31.930Z,101431.92
2023-01-22T15:39:00.613Z,101429.71
2023-01-22T15:41:32.229Z,101431.80
2023-01-22T15:44:03.031Z,101434.25
2023-01-22T15:46:36.318Z,101436.70
2023-01-22T15:49:08.180Z,101440.69
2023-01-22T15:51:37.055Z,101440.89
2023-01-22T15:54:07.821Z,101445.05
2023-01-22T15:56:38.099Z,101446.28
2023-01-22T15:59:06.822Z,101449.75
2023-01-22T16:01:35.536Z,101452.70
2023-01-22T16:04:05.049Z,101450.37
2023-01-22T16:06:34.690Z,101452.15
2023-01-22T16:09:06.405Z,101454.44
2023-01-22T16:11:35.915Z,101454.80
2023-01-22T16:14:05.539Z,101458.80
2023-01-22T16:16:37.706Z,101464.50
2023-01-22T16:19:08.548Z,101467.29
2023-01-22T16:21:36.947Z,101465.23
2023-01-22T16:24:08.236Z,101471.48
2023-01-22T16:26:38.156Z,101472.59
2023-01-22T16:29:06.687Z,101474.91
2023-01-22T16:31:36.833Z,101472.90
2023-01-22T16:34:18.069Z,101480.38
2023-01-22T16:36:46.583Z,101483.34
2023-01-22T16:39:22.732Z,101482.40
2023-01-22T16:41:52.742Z,101487.45
2023-01-22T16:44:27.316Z,101485.28
2023-01-22T16:46:59.848Z,101485.85
2023-01-22T16:49:31.543Z,101486.02
2023-01-22T16:52:20.700Z,101492.11
2023-01-22T16:54:51.759Z,101495.77
2023-01-22T16:57:20.331Z,101492.52
2023-01-22T16:59:48.718Z,101491.33
2023-01-22T17:02:19.117Z,101496.35
2023-01-22T17:04:47.727Z,101502.05
2023-01-22T17:07:32.226Z,101501.90
2023-01-22T17:10:04.270Z,101503.14
2023-01-22T17:12:34.974Z,101504.89
2023-01-22T17:15:03.704Z,101505.42
2023-01-22T17:17:32.062Z,101503.03
2023-01-22T17:20:00.915Z,101506.52
2023-01-22T17:22:29.377Z,101509.25
2023-01-22T17:24:57.820Z,101515.96
2023-01-22T17:27:26.407Z,101518.73
2023-01-22T17:29:54.821Z,101524.59
2023-01-22T17:32:24.933Z,101527.67
2023-01-22T17:34:53.257Z,101532.19
2023-01-22T17:37:21.621Z,101538.03
2023-01-22T17:39:50.781Z,101539.41
2023-01-22T17:42:21.069Z,101547.52
2023-01-22T17:44:49.502Z,101548.03
2023-01-22T17:47:18.012Z,101553.89
2023-01-22T17:49:48.145Z,101557.84
2023-01-22T17:52:17.909Z,101556.11
2023-01-22T17:54:46.297Z,101558.52
2023-01-22T17:57:14.667Z,101554.90
2023-01-22T17:59:43.013Z,101560.41
2023-01-22T18:02:11.646Z,101559.52
2023-01-22T18:04:40.933Z,101558.33
2023-01-22T18:07:10.802Z,101561.59
2023-01-22T18:09:39.192Z,101562.44
2023-01-22T18:12:09.154Z,101557.92
2023-01-22T18:14:39.695Z,101560.83
2023-01-22T18:17:08.109Z,101562.05
2023-01-22T18:19:36.528Z,101558.59
2023-01-22T18:22:04.904Z,101555.48
2023-01-22T18:24:34.448Z,101555.00
2023-01-22T18:27:02.908Z,101558.80
2023-01-22T18:29:32.549Z,101564.00
2023-01-22T18:32:02.029Z,101571.95
2023-01-22T18:34:30.439Z,101572.84
2023-01-22T18:37:00.295Z,101579.42
2023-01-22T18:39:31.288Z,101580.29
2023-01-22T18:41:59.713Z,101580.09
2023-01-22T18:44:29.192Z,101581.98
2023-01-22T18:46:59.951Z,101586.28
2023-01-22T18:49:29.034Z,101587.82
2023-01-22T18:52:00.901Z,101595.89
2023-01-22T18:54:29.423Z,101596.74
2023-01-22T18:56:59.004Z,101599.16
2023-01-22T18:59:27.381Z,101602.30
2023-01-22T19:01:57.389Z,101605.40
2023-01-22T19:04:27.970Z,101609.20
2023-01-22T19:06:57.166Z,101610.23
2023-01-22T19:09:27.099Z,101612.77
2023-01-22T19:11:55.702Z,101613.10
2023-01-22T19:14:24.244Z,101619.30
2023-01-22T19:16:53.751Z,101619.11
2023-01-22T19:19:22.843Z,101620.98
2023-01-22T19:21:54.735Z,101625.28
2023-01-22T19:24:26.551Z,101628.20
2023-01-22T19:26:56.673Z,101631.29
2023-01-22T19:29:26.453Z,101631.95
2023-01-22T19:31:57.313Z,101632.81
2023-01-22T19:34:28.713Z,101638.65
2023-01-22T19:37:03.201Z,101638.44
2023-01-22T19:39:33.057Z,101646.20
2023-01-22T19:42:05.117Z,101654.12
2023-01-22T19:44:34.952Z,101656.88
2023-01-22T19:47:04.794Z,101658.04
2023-01-22T19:49:33.205Z,101658.36
2023-01-22T19:52:02.493Z,101660.73
2023-01-22T19:54:31.749Z,101657.29
2023-01-22T19:57:00.093Z,101659.20
2023-01-22T19:59:28.544Z,101657.96
2023-01-22T20:01:57.630Z,101660.00
2023-01-22T20:04:31.760Z,101661.34
2023-01-22T20:07:05.345Z,101661.66
2023-01-22T20:09:35.372Z,101667.00
2023-01-22T20:12:05.703Z,101667.50
2023-01-22T20:14:39.099Z,101670.42
2023-01-22T20:17:08.932Z,101675.75
2023-01-22T20:19:39.375Z,101668.51
2023-01-22T20:22:10.753Z,101666.59
2023-01-22T20:24:41.102Z,101672.80
2023-01-22T20:27:10.529Z,101673.50
2023-01-22T20:29:39.861Z,101676.44
2023-01-22T20:32:08.270Z,101683.17
2023-01-22T20:34:37.771Z,101682.27
2023-01-22T20:37:06.153Z,101680.20
2023-01-22T20:39:34.461Z,101682.73
2023-01-22T20:42:02.875Z,101680.84
2023-01-22T20:44:32.146Z,101679.10
2023-01-22T20:47:01.676Z,101674.59
2023-01-22T20:49:33.320Z,101675.11
2023-01-22T20:52:02.871Z,101682.16
2023-01-22T20:54:32.227Z,101679.41
2023-01-22T20:57:00.751Z,101680.98
2023-01-22T20:59:30.278Z,101677.52
2023-01-22T21:01:59.057Z,101685.98
2023-01-22T21:04:27.457Z,101686.66
2023-01-22T21:06:56.815Z,101689.59
2023-01-22T21:09:26.286Z,101692.17
2023-01-22T21:11:55.178Z,101696.48
2023-01-22T21:14:26.023Z,101699.95
2023-01-22T21:16:54.852Z,101697.36
2023-01-22T21:19:25.993Z,101701.51
2023-01-22T21:21:55.509Z,101704.61
2023-01-22T21:24:24.742Z,101708.73
2023-01-22T21:26:53.902Z,101711.80
2023-01-22T21:29:24.034Z,101711.95
2023-01-22T21:31:54.144Z,101713.20
2023-01-22T21:34:24.741Z,101715.27
2023-01-22T21:36:55.034Z,101717.69
2023-01-22T21:39:28.210Z,101720.09
2023-01-22T21:42:16.304Z,101722.20
2023-01-22T21:45:03.472Z,101723.09
2023-01-22T21:47:32.415Z,101722.77
2023-01-22T21:50:00.707Z,101727.42
2023-01-22T21:52:29.098Z,101722.76
2023-01-22T21:54:57.421Z,101723.79
2023-01-22T21:57:26.394Z,101721.90
2023-01-22T21:59:54.796Z,101727.40
2023-01-22T22:02:23.305Z,101726.36
2023-01-22T22:04:51.763Z,101732.73
2023-01-22T22:07:20.275Z,101732.89
2023-01-22T22:09:48.717Z,101735.43
2023-01-22T22:12:17.210Z,101739.00
2023-01-22T22:14:45.567Z,101744.16
2023-01-22T22:17:14.002Z,101747.58
2023-01-22T22:19:42.326Z,101748.58
2023-01-22T22:22:10.791Z,101750.12
2023-01-22T22:24:39.290Z,101750.78
2023-01-22T22:27:07.886Z,101763.89
2023-01-22T22:29:36.271Z,101770.95
2023-01-22T22:32:04.977Z,101772.85
2023-01-22T22:34:33.361Z,101770.41
2023-01-22T22:37:01.647Z,101768.34
2023-01-22T22:39:30.135Z,101768.33
2023-01-22T22:41:58.573Z,101772.11
2023-01-22T22:44:26.874Z,101777.83
2023-01-22T22:46:55.216Z,101785.05
2023-01-22T22:49:23.578Z,101790.58
2023-01-22T22:51:51.945Z,101796.46
2023-01-22T22:54:20.319Z,101805.77
2023-01-22T22:56:49.849Z,101808.68
2023-01-22T22:59:19.787Z,101813.52
2023-01-22T23:01:50.412Z,101822.30
2023-01-22T23:04:18.935Z,101826.27
2023-01-22T23:06:47.551Z,101821.80
2023-01-22T23:09:20.079Z,101819.02
2023-01-22T23:11:51.994Z,101821.79
2023-01-22T23:14:20.522Z,101825.23
2023-01-22T23:16:49.150Z,101828.33
2023-01-22T23:19:25.006Z,101825.05
2023-01-22T23:21:57.063Z,101825.57
2023-01-22T23:24:26.158Z,101819.84
2023-01-22T23:26:55.137Z,101822.94
2023-01-22T23:29:26.660Z,101816.90
2023-01-22T23:31:55.969Z,101818.60
2023-01-22T23:34:24.583Z,101817.05
2023-01-22T23:36:52.951Z,101815.33
2023-01-22T23:39:21.785Z,101817.38
2023-01-22T23:41:50.098Z,101813.57
2023-01-22T23:44:18.627Z,101812.02
2023-01-22T23:46:47.016Z,101815.83
2023-01-22T23:49:15.439Z,101817.71
2023-01-22T23:51:44.750Z,101819.27
2023-01-22T23:54:13.403Z,101820.31
2023-01-22T23:56:41.765Z,101823.27
2023-01-22T23:59:13.174Z,101830.33
